Time;durP1;ratioP1;P1;durP2;ratioP2;P2;SDS_P1;SDS_P2;PMS_P1;PMS_P2;Temp;Humidity;BMP_temperature;BMP_pressure;BME280_temperature;BME280_humidity;BME280_pressure;Samples;Min_cycle;Max_cycle;Signal;HPM_P1;HPM_P2
2022/03/05 00:02:01;;;;;;;136.13;129.02;;;;;;;-2.59;100.00;101963.50;5032776;28;20045;-82
2022/03/05 00:04:34;;;;;;;136.65;129.55;;;;;;;-2.62;100.00;101964.66;5023467;28;20041;-82
2022/03/05 00:07:02;;;;;;;130.60;123.78;;;;;;;-2.69;100.00;101966.31;5022572;28;20060;-81
2022/03/05 00:09:37;;;;;;;134.73;127.72;;;;;;;-2.73;100.00;101964.97;5029119;28;20048;-81
2022/03/05 00:12:10;;;;;;;131.88;124.97;;;;;;;-2.72;100.00;101969.31;5020689;28;20034;-82
2022/03/05 00:14:43;;;;;;;135.30;128.23;;;;;;;-2.74;100.00;101971.28;5034891;28;20042;-82
2022/03/05 00:17:16;;;;;;;133.90;126.85;;;;;;;-2.76;100.00;101966.13;5020234;28;20049;-82
2022/03/05 00:19:49;;;;;;;140.02;132.70;;;;;;;-2.81;100.00;101967.59;5032340;28;20497;-82
2022/03/05 00:22:22;;;;;;;143.35;135.82;;;;;;;-2.79;100.00;101965.59;5027330;28;20049;-82
2022/03/05 00:24:52;;;;;;;147.35;139.57;;;;;;;-2.78;100.00;101967.25;5020149;28;20053;-81
2022/03/05 00:27:25;;;;;;;151.65;143.60;;;;;;;-2.82;100.00;101972.06;5019085;28;20050;-82
2022/03/05 00:29:59;;;;;;;164.55;155.75;;;;;;;-2.82;100.00;101966.72;5033107;28;20046;-82
2022/03/05 00:32:27;;;;;;;156.60;148.25;;;;;;;-2.86;100.00;101961.91;5033140;28;20046;-82
2022/03/05 00:34:56;;;;;;;172.75;163.48;;;;;;;-3.08;100.00;101935.66;5021192;28;20056;-82
2022/03/05 00:37:29;;;;;;;175.25;165.85;;;;;;;-2.94;100.00;101955.53;5032412;28;20057;-82
2022/03/05 00:39:59;;;;;;;178.18;168.48;;;;;;;-2.89;100.00;101965.72;5028758;28;20049;-82
2022/03/05 00:42:32;;;;;;;188.20;177.98;;;;;;;-2.94;100.00;101949.34;5029017;28;20410;-81
2022/03/05 00:45:06;;;;;;;203.85;192.90;;;;;;;-2.84;100.00;101962.59;5026587;28;20040;-82
2022/03/05 00:47:39;;;;;;;207.63;196.40;;;;;;;-2.87;100.00;101961.06;5018305;28;20061;-82
2022/03/05 00:50:09;;;;;;;209.75;198.52;;;;;;;-2.89;100.00;101962.22;5030512;28;20405;-82
2022/03/05 00:52:37;;;;;;;215.15;203.52;;;;;;;-2.81;100.00;101967.59;5021371;28;20049;-82
2022/03/05 00:55:12;;;;;;;226.82;214.60;;;;;;;-2.81;100.00;101963.09;5033930;28;20064;-81
2022/03/05 00:57:40;;;;;;;226.65;214.43;;;;;;;-2.78;100.00;101969.94;5032628;28;20050;-82
2022/03/05 01:00:14;;;;;;;243.48;230.35;;;;;;;-2.80;100.00;101955.94;5029191;28;20058;-82
2022/03/05 01:02:47;;;;;;;263.38;249.15;;;;;;;-2.84;100.00;101955.41;5017997;28;20042;-82
2022/03/05 01:05:15;;;;;;;262.63;248.40;;;;;;;-2.80;100.00;101962.09;5033168;28;20057;-82
2022/03/05 01:07:48;;;;;;;253.50;239.63;;;;;;;-2.80;100.00;101958.59;5027236;28;20045;-81
2022/03/05 01:10:18;;;;;;;264.38;250.10;;;;;;;-2.84;100.00;101960.75;5030593;28;20038;-81
2022/03/05 01:12:46;;;;;;;262.67;248.60;;;;;;;-2.86;100.00;101959.22;5025859;28;20042;-82
2022/03/05 01:15:15;;;;;;;279.88;264.85;;;;;;;-2.93;100.00;101937.72;5035169;28;20056;-81
2022/03/05 01:17:43;;;;;;;258.55;244.70;;;;;;;-2.88;100.00;101948.75;5030760;28;20049;-81
2022/03/05 01:20:12;;;;;;;253.82;240.23;;;;;;;-2.83;100.00;101948.25;5025793;28;20050;-82
2022/03/05 01:22:45;;;;;;;245.80;232.52;;;;;;;-2.83;100.00;101957.09;5031410;28;20048;-81
2022/03/05 01:25:19;;;;;;;250.27;236.80;;;;;;;-2.94;100.00;101957.34;5025038;28;20053;-82
2022/03/05 01:27:53;;;;;;;248.55;235.20;;;;;;;-2.96;100.00;101954.03;5033603;28;20053;-82
2022/03/05 01:30:21;;;;;;;244.15;230.98;;;;;;;-2.97;100.00;101950.53;5031619;28;20532;-81
2022/03/05 01:32:55;;;;;;;246.13;232.88;;;;;;;-2.99;100.00;101954.34;5027443;28;20045;-81
2022/03/05 01:35:28;;;;;;;246.23;232.95;;;;;;;-3.03;100.00;101947.66;5029747;28;20049;-81
2022/03/05 01:37:56;;;;;;;259.23;245.35;;;;;;;-3.10;100.00;101952.78;5032352;28;20048;-81
2022/03/05 01:40:26;;;;;;;261.15;247.02;;;;;;;-3.30;100.00;101897.09;5032017;28;20049;-81
2022/03/05 01:42:59;;;;;;;264.50;250.13;;;;;;;-3.02;100.00;101952.84;5032344;28;20042;-81
2022/03/05 01:45:32;;;;;;;270.48;255.82;;;;;;;-3.01;100.00;101945.66;5032041;28;20045;-82
2022/03/05 01:48:06;;;;;;;277.85;262.70;;;;;;;-3.06;100.00;101954.16;5016788;28;20042;-81
2022/03/05 01:50:34;;;;;;;302.65;286.15;;;;;;;-3.03;100.00;101955.66;5024342;28;20045;-81
2022/03/05 01:53:02;;;;;;;326.15;308.00;;;;;;;-3.09;100.00;101949.97;5014554;28;20053;-82
2022/03/05 01:55:37;;;;;;;322.83;304.58;;;;;;;-3.02;100.00;101965.31;5031610;28;20053;-81
2022/03/05 01:58:10;;;;;;;349.60;329.38;;;;;;;-3.03;100.00;101958.31;5029193;28;20037;-82
2022/03/05 02:00:43;;;;;;;378.00;355.73;;;;;;;-2.99;100.00;101954.34;5030756;28;20061;-81
2022/03/05 02:03:11;;;;;;;412.35;387.58;;;;;;;-3.04;100.00;101960.13;5035045;28;20533;-82
2022/03/05 02:05:39;;;;;;;438.40;411.35;;;;;;;-2.99;100.00;101954.34;5033065;28;20056;-82
2022/03/05 02:08:13;;;;;;;463.00;434.17;;;;;;;-3.00;100.00;101956.16;5018683;28;20049;-82
2022/03/05 02:10:47;;;;;;;495.17;463.90;;;;;;;-2.99;100.00;101957.00;5023679;28;20048;-82
2022/03/05 02:13:20;;;;;;;555.85;520.85;;;;;;;-2.99;100.00;101938.38;5022318;28;20049;-82
2022/03/05 02:15:53;;;;;;;558.15;522.65;;;;;;;-3.01;100.00;101935.00;5026524;28;20041;-82
2022/03/05 02:18:27;;;;;;;567.60;530.58;;;;;;;-3.11;100.00;101928.00;5030518;28;20053;-83
2022/03/05 02:21:01;;;;;;;582.58;545.05;;;;;;;-3.06;100.00;101937.34;5031614;28;20049;-82
2022/03/05 02:23:34;;;;;;;593.88;555.20;;;;;;;-3.06;100.00;101937.34;5023537;28;20050;-82
2022/03/05 02:26:08;;;;;;;638.78;596.58;;;;;;;-3.16;100.00;101927.63;5031552;28;20041;-82
2022/03/05 02:28:37;;;;;;;659.70;615.92;;;;;;;-3.07;100.00;101936.47;5023583;28;20490;-82
2022/03/05 02:31:06;;;;;;;740.38;690.75;;;;;;;-3.13;100.00;101931.81;5031565;28;20041;-82
2022/03/05 02:33:34;;;;;;;759.72;708.47;;;;;;;-3.14;100.00;101925.63;5032225;28;20046;-82
2022/03/05 02:36:09;;;;;;;773.40;721.20;;;;;;;-3.19;100.00;101924.44;5028055;28;20055;-82
2022/03/05 02:38:42;;;;;;;784.50;731.70;;;;;;;-3.21;100.00;101923.78;5023395;28;20049;-82
2022/03/05 02:41:10;;;;;;;788.70;735.08;;;;;;;-3.32;100.00;101917.72;5032472;28;20409;-82
2022/03/05 02:43:38;;;;;;;820.88;764.72;;;;;;;-3.20;100.00;101930.75;5026504;28;20053;-82
2022/03/05 02:46:06;;;;;;;840.50;782.95;;;;;;;-3.25;100.00;101936.56;5032474;28;20054;-81
2022/03/05 02:48:35;;;;;;;866.00;806.05;;;;;;;-3.31;100.00;101932.69;5027063;28;20076;-82
2022/03/05 02:51:04;;;;;;;885.78;824.05;;;;;;;-3.32;100.00;101933.69;5028920;28;20056;-82
2022/03/05 02:53:40;;;;;;;895.28;832.70;;;;;;;-3.36;100.00;101931.50;5037714;28;20522;-82
2022/03/05 02:56:10;;;;;;;885.60;823.70;;;;;;;-3.44;100.00;101938.44;5030619;28;20410;-82
2022/03/05 02:58:39;;;;;;;888.33;826.15;;;;;;;-3.45;100.00;101946.59;5030812;28;20050;-82
2022/03/05 03:01:08;;;;;;;905.88;842.20;;;;;;;-3.44;100.00;101941.09;5038286;28;20050;-82
2022/03/05 03:03:41;;;;;;;921.50;856.28;;;;;;;-3.57;100.00;101913.22;5023915;28;20076;-82
2022/03/05 03:06:15;;;;;;;944.67;877.10;;;;;;;-3.51;100.00;101933.88;5026907;28;20053;-82
2022/03/05 03:08:49;;;;;;;975.38;905.00;;;;;;;-3.51;100.00;101939.22;5027426;28;20050;-82
2022/03/05 03:11:22;;;;;;;992.83;920.60;;;;;;;-3.54;100.00;101931.53;5015297;28;20677;-82
2022/03/05 03:13:55;;;;;;;994.72;922.35;;;;;;;-3.56;100.00;101936.16;5034246;28;20041;-82
2022/03/05 03:16:24;;;;;;;1023.55;948.13;;;;;;;-3.74;100.00;101912.25;5030742;28;20054;-82
2022/03/05 03:18:52;;;;;;;1035.13;957.90;;;;;;;-3.61;100.00;101939.31;5024446;28;20049;-82
2022/03/05 03:21:25;;;;;;;1059.55;979.78;;;;;;;-3.56;100.00;101939.69;5021963;28;20491;-82
2022/03/05 03:23:59;;;;;;;1079.10;996.15;;;;;;;-3.86;100.00;101903.72;5035095;28;20417;-82
2022/03/05 03:26:27;;;;;;;1093.85;999.90;;;;;;;-3.66;100.00;101950.44;5034781;28;20052;-82
2022/03/05 03:29:00;;;;;;;1114.25;999.90;;;;;;;-3.67;100.00;101937.28;5033832;28;20057;-82
2022/03/05 03:31:34;;;;;;;1125.70;999.90;;;;;;;-3.66;100.00;101947.75;5034646;28;20421;-83
2022/03/05 03:34:07;;;;;;;1136.50;999.90;;;;;;;-3.66;100.00;101945.09;5034306;28;20045;-82
2022/03/05 03:36:35;;;;;;;1154.13;999.90;;;;;;;-3.64;100.00;101943.09;5024407;28;20355;-82
2022/03/05 03:39:05;;;;;;;1154.70;999.90;;;;;;;-3.63;100.00;101942.13;5033685;28;20402;-82
2022/03/05 03:41:38;;;;;;;1167.15;999.90;;;;;;;-3.65;100.00;101945.94;5024202;28;20397;-82
2022/03/05 03:44:11;;;;;;;1172.05;999.90;;;;;;;-3.63;100.00;101942.13;5052971;28;20405;-82
2022/03/05 03:46:45;;;;;;;1171.95;999.90;;;;;;;-3.61;100.00;101941.97;5034304;28;20049;-82
2022/03/05 03:49:18;;;;;;;1168.60;999.90;;;;;;;-3.67;100.00;101940.75;5033751;28;20049;-82
2022/03/05 03:51:46;;;;;;;1177.95;999.90;;;;;;;-3.63;100.00;101939.47;5034308;28;20049;-82
2022/03/05 03:54:20;;;;;;;1178.00;999.90;;;;;;;-3.65;100.00;101937.94;5031595;28;20516;-82
2022/03/05 03:56:54;;;;;;;1179.55;999.90;;;;;;;-3.69;100.00;101932.09;5024326;28;20410;-81
2022/03/05 03:59:27;;;;;;;1177.97;999.90;;;;;;;-3.69;100.00;101941.91;5033880;28;20049;-82
2022/03/05 04:01:55;;;;;;;1182.03;999.90;;;;;;;-3.67;100.00;101942.59;5034088;28;20053;-82
2022/03/05 04:04:28;;;;;;;1183.03;999.90;;;;;;;-3.73;100.00;101938.72;5034267;28;20052;-82
2022/03/05 04:09:43;;;;;;;1184.63;999.90;;;;;;;-3.73;100.00;101937.88;5027218;28;20042;-82
2022/03/05 04:12:12;;;;;;;1187.15;999.90;;;;;;;-3.74;100.00;101949.50;5034020;28;20049;-82
2022/03/05 04:14:40;;;;;;;1188.55;999.90;;;;;;;-3.73;100.00;101937.88;5038218;28;20567;-82
2022/03/05 04:17:08;;;;;;;1192.78;999.90;;;;;;;-3.77;100.00;101940.84;5035884;28;20050;-82
2022/03/05 04:19:42;;;;;;;1190.53;999.90;;;;;;;-3.79;100.00;101942.00;5032837;28;20050;-82
2022/03/05 04:22:15;;;;;;;1198.38;999.90;;;;;;;-3.85;100.00;101934.63;5029907;28;20064;-82
2022/03/05 04:24:49;;;;;;;1196.65;999.90;;;;;;;-3.86;100.00;101933.78;5015582;28;20045;-82
2022/03/05 04:27:22;;;;;;;1200.72;999.90;;;;;;;-3.74;100.00;101944.19;5042363;28;20053;-83
2022/03/05 04:29:56;;;;;;;1199.20;999.90;;;;;;;-3.76;100.00;101939.88;5029156;28;20073;-82
2022/03/05 04:32:29;;;;;;;1198.80;999.90;;;;;;;-3.70;100.00;101929.59;5031793;28;20049;-82
2022/03/05 04:35:03;;;;;;;1201.13;999.90;;;;;;;-3.84;100.00;101902.56;5034512;28;20044;-82
2022/03/05 04:37:37;;;;;;;1206.20;999.90;;;;;;;-3.64;100.00;101936.97;5028956;28;20041;-82
2022/03/05 04:40:12;;;;;;;1208.05;999.90;;;;;;;-3.65;100.00;101938.78;5033265;28;20049;-82
2022/03/05 04:42:45;;;;;;;1206.32;999.90;;;;;;;-3.70;100.00;101937.56;5029704;28;20042;-82
2022/03/05 04:45:14;;;;;;;1209.22;999.90;;;;;;;-3.83;100.00;101912.19;5030572;28;20089;-82
2022/03/05 04:47:42;;;;;;;1208.78;999.90;;;;;;;-3.64;100.00;101936.97;5032725;28;20655;-82
2022/03/05 04:50:11;;;;;;;1208.03;999.90;;;;;;;-3.62;100.00;101934.97;5033073;28;20064;-82
2022/03/05 04:52:44;;;;;;;1211.93;999.90;;;;;;;-3.60;100.00;101941.81;5031198;28;20046;-82
2022/03/05 04:55:13;;;;;;;1210.45;999.90;;;;;;;-3.65;100.00;101941.44;5033972;28;20048;-82
2022/03/05 04:57:42;;;;;;;1213.50;999.90;;;;;;;-3.62;100.00;101941.16;5032940;28;20052;-82
2022/03/05 05:00:16;;;;;;;1215.55;999.90;;;;;;;-3.63;100.00;101939.47;5033045;28;20049;-82
2022/03/05 05:02:49;;;;;;;1214.47;999.90;;;;;;;-3.64;100.00;101942.28;5033222;28;20053;-82
2022/03/05 05:05:17;;;;;;;1212.50;999.90;;;;;;;-3.70;100.00;101932.25;5041901;28;20042;-82
2022/03/05 05:07:45;;;;;;;1213.90;999.90;;;;;;;-3.63;100.00;101943.97;5032296;28;20041;-82
2022/03/05 05:10:14;;;;;;;1216.53;999.90;;;;;;;-3.65;100.00;101946.75;5031841;28;20049;-82
2022/03/05 05:12:42;;;;;;;1215.35;999.90;;;;;;;-3.68;100.00;101947.06;5024314;28;20418;-82
2022/03/05 05:15:15;;;;;;;1213.57;999.90;;;;;;;-3.73;100.00;101952.00;5026027;28;20498;-82
2022/03/05 05:17:49;;;;;;;1214.50;999.90;;;;;;;-3.73;100.00;101951.19;5032064;28;20060;-82
2022/03/05 05:20:17;;;;;;;1213.80;999.90;;;;;;;-3.72;100.00;101951.03;5031439;28;20069;-82
2022/03/05 05:22:45;;;;;;;1214.00;999.90;;;;;;;-3.79;100.00;101948.13;5026687;28;20052;-82
2022/03/05 05:25:20;;;;;;;1215.38;999.90;;;;;;;-3.75;100.00;101956.66;5044050;28;20042;-82
2022/03/05 05:27:53;;;;;;;1215.97;999.90;;;;;;;-3.96;100.00;101920.56;5040847;28;20050;-82
2022/03/05 05:30:26;;;;;;;1218.03;999.90;;;;;;;-3.73;100.00;101964.47;5032358;28;20053;-82
2022/03/05 05:32:59;;;;;;;1220.80;999.90;;;;;;;-3.78;100.00;101957.81;5018159;28;20052;-82
2022/03/05 05:35:28;;;;;;;1217.10;999.90;;;;;;;-3.79;100.00;101960.63;5033282;28;20049;-81
2022/03/05 05:37:56;;;;;;;1216.22;999.90;;;;;;;-3.78;100.00;101967.63;5032214;28;20053;-82
2022/03/05 05:40:25;;;;;;;1219.22;999.90;;;;;;;-3.92;100.00;101934.41;5028404;28;20050;-82
2022/03/05 05:42:58;;;;;;;1216.53;999.90;;;;;;;-3.78;100.00;101960.47;5025705;28;20420;-82
2022/03/05 05:45:27;;;;;;;1216.47;999.90;;;;;;;-3.74;100.00;101965.47;5032077;28;20414;-82
2022/03/05 05:48:02;;;;;;;1220.22;999.90;;;;;;;-3.72;100.00;101966.16;5036022;28;20053;-82
2022/03/05 05:50:35;;;;;;;1218.25;999.90;;;;;;;-3.83;100.00;101946.78;5023287;28;20580;-82
2022/03/05 05:53:08;;;;;;;1220.78;999.90;;;;;;;-3.65;100.00;101969.88;5028704;28;20052;-83
2022/03/05 05:55:38;;;;;;;1218.57;999.90;;;;;;;-3.72;100.00;101953.69;5014500;28;20518;-82
2022/03/05 05:58:06;;;;;;;1221.57;999.90;;;;;;;-3.62;100.00;101957.09;5035948;28;20049;-82
2022/03/05 06:00:34;;;;;;;1217.28;999.90;;;;;;;-3.55;100.00;101973.28;5052020;28;20044;-82
2022/03/05 06:03:02;;;;;;;1218.25;999.90;;;;;;;-3.52;100.00;101970.31;5035866;28;20410;-82
2022/03/05 06:05:35;;;;;;;1220.18;999.90;;;;;;;-3.48;100.00;101982.34;5029231;28;20418;-82
2022/03/05 06:08:09;;;;;;;1221.05;999.90;;;;;;;-3.40;100.00;101978.06;5031258;28;20413;-83
2022/03/05 06:10:43;;;;;;;1220.53;999.90;;;;;;;-3.35;100.00;101975.75;5031556;28;20071;-82
2022/03/05 06:13:17;;;;;;;1217.72;999.90;;;;;;;-3.37;100.00;101986.56;5031694;28;20045;-82
2022/03/05 06:15:45;;;;;;;1219.00;999.90;;;;;;;-3.46;100.00;101967.03;5032721;28;20042;-82
2022/03/05 06:18:18;;;;;;;1216.63;999.90;;;;;;;-3.38;100.00;101990.22;5032385;28;20060;-82
2022/03/05 06:20:52;;;;;;;1223.18;999.90;;;;;;;-3.30;100.00;101990.28;5033276;28;20045;-82
2022/03/05 06:23:25;;;;;;;1221.38;999.90;;;;;;;-3.30;100.00;101992.94;5032584;28;20057;-82
2022/03/05 06:25:59;;;;;;;1219.78;999.90;;;;;;;-3.36;100.00;101988.22;5026925;28;20486;-82
2022/03/05 06:28:33;;;;;;;1222.40;999.90;;;;;;;-3.36;100.00;101988.22;5030332;28;20049;-82
2022/03/05 06:31:02;;;;;;;1220.78;999.90;;;;;;;-3.32;100.00;101989.59;5028024;28;20049;-82
2022/03/05 06:33:35;;;;;;;1223.40;999.90;;;;;;;-3.40;100.00;101976.22;5029476;28;20049;-82
2022/03/05 06:36:08;;;;;;;1221.85;999.90;;;;;;;-3.39;100.00;101979.72;5032316;28;20564;-83
2022/03/05 06:38:41;;;;;;;1223.13;999.90;;;;;;;-3.36;100.00;101985.56;5019499;28;20944;-82
2022/03/05 06:41:16;;;;;;;1224.18;999.90;;;;;;;-3.21;100.00;101993.00;5031008;28;20048;-82
2022/03/05 06:43:49;;;;;;;1224.28;999.90;;;;;;;-3.22;100.00;101978.84;5035732;28;20045;-82
2022/03/05 06:46:17;;;;;;;1222.72;999.90;;;;;;;-3.17;100.00;101986.38;5035575;28;20083;-82
2022/03/05 06:48:50;;;;;;;1224.57;999.90;;;;;;;-3.13;100.00;101987.72;5027184;28;20052;-83
2022/03/05 06:51:23;;;;;;;1224.30;999.90;;;;;;;-3.06;100.00;101995.94;5040473;28;20413;-83
2022/03/05 06:53:56;;;;;;;1225.72;999.90;;;;;;;-3.06;100.00;101990.59;5035287;28;20065;-83
2022/03/05 06:56:26;;;;;;;1224.47;999.90;;;;;;;-2.96;100.00;101992.13;5034625;28;20050;-83
2022/03/05 06:58:59;;;;;;;1228.85;999.90;;;;;;;-2.96;100.00;101988.66;5036609;28;20081;-83
2022/03/05 07:01:32;;;;;;;1231.50;999.90;;;;;;;-2.92;100.00;101980.19;5019345;28;20076;-83
2022/03/05 07:04:05;;;;;;;1230.57;999.90;;;;;;;-2.77;100.00;101996.41;5027129;28;20041;-83
2022/03/05 07:06:38;;;;;;;1230.43;999.90;;;;;;;-2.81;100.00;101978.25;5034508;28;20120;-83
2022/03/05 07:09:11;;;;;;;1231.53;999.90;;;;;;;-2.69;100.00;101992.09;5030962;28;20053;-83
2022/03/05 07:11:46;;;;;;;1232.80;999.90;;;;;;;-2.60;100.00;101993.81;5034455;28;20046;-83
2022/03/05 07:14:19;;;;;;;1228.60;999.90;;;;;;;-2.57;100.00;101996.16;5034938;28;20053;-83
2022/03/05 07:16:52;;;;;;;1233.65;999.90;;;;;;;-2.52;100.00;102001.03;5034841;28;20041;-83
2022/03/05 07:19:25;;;;;;;1230.65;999.90;;;;;;;-2.48;100.00;101995.22;5034906;28;20053;-83
2022/03/05 07:21:58;;;;;;;1230.90;999.90;;;;;;;-2.42;100.00;101994.56;5034682;28;20045;-83
2022/03/05 07:24:31;;;;;;;1228.88;999.90;;;;;;;-2.41;100.00;101982.06;5035186;28;20045;-83
2022/03/05 07:27:06;;;;;;;1233.68;999.90;;;;;;;-2.28;100.00;101992.25;5026758;28;20046;-83
2022/03/05 07:29:34;;;;;;;1236.63;999.90;;;;;;;-2.23;100.00;101995.28;5037253;28;20064;-82
2022/03/05 07:32:08;;;;;;;1235.07;999.90;;;;;;;-2.25;100.00;101998.13;5034377;28;20049;-85
2022/03/05 07:34:41;;;;;;;1238.35;999.90;;;;;;;-2.15;100.00;102003.31;5033629;28;20067;-83
2022/03/05 07:37:14;;;;;;;1236.43;999.90;;;;;;;-2.08;100.00;102007.00;5024379;28;20049;-82
2022/03/05 07:39:47;;;;;;;1240.55;999.90;;;;;;;-1.98;100.00;102008.69;5024652;28;20057;-82
2022/03/05 07:42:22;;;;;;;1237.70;999.90;;;;;;;-1.96;100.00;102007.53;5033389;28;20060;-82
2022/03/05 07:44:55;;;;;;;1236.43;999.90;;;;;;;-1.93;100.00;102009.03;5033837;28;20049;-83
2022/03/05 07:47:28;;;;;;;1236.07;999.90;;;;;;;-1.86;100.00;102006.53;5032713;28;20046;-84
2022/03/05 07:50:01;;;;;;;1238.72;999.90;;;;;;;-1.75;100.00;102003.56;5031968;28;20045;-83
2022/03/05 07:52:29;;;;;;;1240.93;999.90;;;;;;;-1.68;100.00;102003.75;5034757;28;20037;-82
2022/03/05 07:55:03;;;;;;;1236.93;999.90;;;;;;;-1.66;100.00;102005.22;5033585;28;20057;-82
2022/03/05 07:57:38;;;;;;;1237.65;999.90;;;;;;;-1.68;100.00;101991.22;5032795;28;20042;-82
2022/03/05 08:00:08;;;;;;;1241.53;999.90;;;;;;;-1.55;100.00;101994.22;5038863;28;20052;-81
2022/03/05 08:02:41;;;;;;;1240.70;999.90;;;;;;;-1.50;100.00;102003.56;5032330;28;20054;-82
2022/03/05 08:05:14;;;;;;;1241.32;999.90;;;;;;;-1.64;100.00;101967.66;5028583;28;20057;-82
2022/03/05 08:07:42;;;;;;;1246.82;999.90;;;;;;;-1.67;100.00;101960.84;5032077;28;20064;-81
2022/03/05 08:10:17;;;;;;;1249.07;999.90;;;;;;;-1.32;100.00;102006.88;5032509;28;20065;-81
2022/03/05 08:12:51;;;;;;;1251.82;999.90;;;;;;;-1.08;100.00;102000.69;5022786;28;20410;-82
2022/03/05 08:15:24;;;;;;;1253.90;999.90;;;;;;;-1.15;100.00;102002.34;5025662;28;20413;-83
2022/03/05 08:17:59;;;;;;;1256.82;999.90;;;;;;;-1.10;100.00;102009.88;5028475;28;20414;-83
2022/03/05 08:20:32;;;;;;;1261.78;999.90;;;;;;;-1.06;100.00;102011.22;5030975;28;20049;-83
2022/03/05 08:23:01;;;;;;;1263.03;999.90;;;;;;;-0.95;100.00;102016.19;5026284;28;20056;-84
2022/03/05 08:25:29;;;;;;;1265.25;999.90;;;;;;;-0.86;100.00;102007.16;5024279;28;20064;-84
2022/03/05 08:27:59;;;;;;;1267.80;999.90;;;;;;;-1.06;100.00;101966.63;5027619;28;20056;-83
2022/03/05 08:30:32;;;;;;;1272.30;999.90;;;;;;;-0.92;100.00;101977.59;5030513;28;20042;-84
2022/03/05 08:33:01;;;;;;;1274.75;999.90;;;;;;;-0.71;100.00;102009.94;5020425;28;21522;-84
2022/03/05 08:35:34;;;;;;;1276.90;999.90;;;;;;;-0.59;100.00;102010.41;5026281;28;20053;-84
2022/03/05 08:38:07;;;;;;;1280.00;999.90;;;;;;;-0.57;100.00;102021.75;5020791;28;20065;-86
2022/03/05 08:40:36;;;;;;;1284.95;999.90;;;;;;;-0.54;100.00;102017.91;5022690;28;20065;-85
2022/03/05 08:43:05;;;;;;;1289.30;999.90;;;;;;;-0.70;100.00;101990.22;5020281;28;20052;-84
2022/03/05 08:45:39;;;;;;;1295.28;999.90;;;;;;;-0.37;100.00;102024.03;5021757;28;20045;-85
2022/03/05 08:48:07;;;;;;;1295.78;999.90;;;;;;;-0.31;100.00;102027.84;5023202;28;20053;-83
2022/03/05 08:50:40;;;;;;;1305.03;999.90;;;;;;;-0.25;100.00;102019.13;5020482;28;20076;-83
2022/03/05 08:53:09;;;;;;;1310.82;999.90;;;;;;;-0.18;100.00;102028.09;5019746;28;20691;-84
2022/03/05 08:55:37;;;;;;;1315.82;999.90;;;;;;;-0.27;100.00;102005.91;5020781;28;20115;-83
2022/03/05 08:58:11;;;;;;;1327.45;999.90;;;;;;;-0.20;100.00;102020.25;5021449;28;20214;-83
2022/03/05 09:00:45;;;;;;;1336.05;999.90;;;;;;;-0.14;100.00;102015.22;5024661;28;20808;-84
2022/03/05 09:03:13;;;;;;;1343.35;999.90;;;;;;;-0.04;100.00;102032.72;5020578;28;20061;-83
2022/03/05 09:05:42;;;;;;;1350.78;999.90;;;;;;;0.06;100.00;102020.97;5020691;28;20045;-83
2022/03/05 09:08:10;;;;;;;1357.72;999.90;;;;;;;0.16;100.00;102021.56;5023703;28;20065;-83
2022/03/05 09:10:38;;;;;;;1363.70;999.90;;;;;;;0.20;100.00;102022.88;5022544;28;20053;-83
2022/03/05 09:13:13;;;;;;;1381.75;999.90;;;;;;;0.33;100.00;102019.59;5022352;28;20100;-83
2022/03/05 09:15:46;;;;;;;1387.55;999.90;;;;;;;0.36;100.00;102024.63;5020330;28;20048;-83
2022/03/05 09:18:20;;;;;;;1400.05;999.90;;;;;;;0.46;100.00;102019.84;5020516;28;20061;-83
2022/03/05 09:20:48;;;;;;;1421.00;999.90;;;;;;;0.41;100.00;102010.69;5022526;28;20050;-83
2022/03/05 09:23:16;;;;;;;1443.70;999.90;;;;;;;0.60;100.00;102012.88;5024514;28;20053;-83
2022/03/05 09:25:44;;;;;;;1457.65;999.90;;;;;;;0.62;100.00;102026.06;5019063;28;20057;-82
2022/03/05 09:28:19;;;;;;;1479.50;999.90;;;;;;;0.70;100.00;102023.31;5019598;28;20062;-83
2022/03/05 09:30:47;;;;;;;1500.00;999.90;;;;;;;0.75;100.00;102025.47;5019681;28;20065;-82
2022/03/05 09:33:22;;;;;;;1519.00;999.90;;;;;;;0.78;100.00;102028.63;5019332;28;20780;-83
2022/03/05 09:35:50;;;;;;;1531.72;999.90;;;;;;;0.78;100.00;102023.25;5019291;28;20056;-84
2022/03/05 09:38:24;;;;;;;1541.85;999.90;;;;;;;0.67;100.00;101992.38;5020195;28;20060;-84
2022/03/05 09:40:57;;;;;;;1552.10;999.90;;;;;;;0.88;100.00;102020.31;5020116;28;20068;-83
2022/03/05 09:43:26;;;;;;;1559.72;999.90;;;;;;;0.95;100.00;102015.06;5022104;28;20060;-84
2022/03/05 09:46:00;;;;;;;1563.32;999.90;;;;;;;0.98;100.00;102012.84;5022339;28;20524;-85
2022/03/05 09:48:30;;;;;;;1563.30;999.90;;;;;;;1.02;100.00;102013.31;5023029;28;20049;-84
2022/03/05 09:51:03;;;;;;;1555.18;999.90;;;;;;;0.90;100.00;101985.28;5020732;28;20061;-83
2022/03/05 09:53:37;;;;;;;1545.25;999.90;;;;;;;1.08;100.00;102006.38;5020834;28;20057;-83
2022/03/05 09:56:10;;;;;;;1539.47;999.90;;;;;;;1.22;100.00;102018.97;5022095;28;20061;-83
2022/03/05 09:58:44;;;;;;;1530.70;999.90;;;;;;;1.32;100.00;102013.34;5018900;28;20060;-84
2022/03/05 10:01:19;;;;;;;1518.18;999.90;;;;;;;1.36;100.00;102012.78;5021527;28;20061;-83
2022/03/05 10:03:53;;;;;;;1512.63;999.90;;;;;;;1.41;100.00;102001.50;5020184;28;20065;-84
2022/03/05 10:06:27;;;;;;;1500.70;999.90;;;;;;;1.64;100.00;102014.81;5019768;28;20058;-83
2022/03/05 10:09:00;;;;;;;1492.05;999.90;;;;;;;1.60;100.00;102005.47;5019965;28;20053;-84
2022/03/05 10:11:40;;;;;;;1468.10;999.90;;;;;;;1.76;100.00;102009.78;5020471;28;20057;-84
2022/03/05 10:14:16;;;;;;;1454.50;999.90;;;;;;;1.92;100.00;102015.94;5021083;28;20060;-84
2022/03/05 10:16:49;;;;;;;1406.55;999.90;;;;;;;1.98;100.00;102009.81;5024632;28;20425;-84
2022/03/05 10:19:20;;;;;;;1382.70;999.90;;;;;;;2.01;100.00;101996.81;5018055;28;20057;-84
2022/03/05 10:21:58;;;;;;;1374.55;999.90;;;;;;;2.16;100.00;102002.16;5022249;28;20052;-85
2022/03/05 10:24:37;;;;;;;1366.53;999.90;;;;;;;2.31;100.00;101994.03;5022281;28;20072;-83
2022/03/05 10:27:11;;;;;;;1333.72;999.90;;;;;;;2.30;100.00;102002.28;5021541;28;20057;-83
2022/03/05 10:29:45;;;;;;;1319.45;999.90;;;;;;;2.41;100.00;102011.69;5025112;28;20053;-83
2022/03/05 10:32:15;;;;;;;1308.03;999.90;;;;;;;2.59;100.00;102011.25;5021792;28;20825;-84
2022/03/05 10:34:55;;;;;;;1296.40;999.90;;;;;;;2.96;100.00;102007.38;5020910;28;20064;-84
2022/03/05 10:37:28;;;;;;;1262.80;999.90;;;;;;;3.01;100.00;102004.09;5020114;28;20057;-84
2022/03/05 10:39:59;;;;;;;1216.78;999.90;;;;;;;3.14;100.00;101993.44;5023250;28;20045;-83
2022/03/05 10:42:38;;;;;;;1158.90;999.90;;;;;;;3.10;100.00;101994.84;5019390;28;20057;-82
2022/03/05 10:45:17;;;;;;;608.90;569.22;;;;;;;3.13;100.00;101996.31;5019817;28;20080;-84
2022/03/05 10:47:48;;;;;;;210.95;199.73;;;;;;;3.01;100.00;101998.72;5017897;28;20061;-84
2022/03/05 10:50:27;;;;;;;80.20;75.95;;;;;;;2.96;100.00;101999.31;5017682;28;20053;-83
2022/03/05 10:53:01;;;;;;;46.28;43.78;;;;;;;3.02;100.00;102000.38;5019921;28;20046;-83
2022/03/05 10:55:36;;;;;;;27.98;26.40;;;;;;;3.08;100.00;101991.56;5022766;28;20049;-83
2022/03/05 10:58:13;;;;;;;27.95;26.40;;;;;;;3.07;100.00;101987.19;5021842;28;20749;-84
2022/03/05 11:00:50;;;;;;;;;;;;;;;3.16;100.00;101986.00;5020093;28;20064;-83
2022/03/05 11:03:24;;;;;;;46.72;44.22;;;;;;;3.06;100.00;101975.59;5018312;28;19929;-83
2022/03/05 11:05:52;;;;;;;39.40;37.30;;;;;;;3.07;100.00;101968.38;5019222;28;20053;-83
2022/03/05 11:08:27;;;;;;;28.88;27.27;;;;;;;3.09;100.00;101971.66;5016356;28;20048;-83